sensor_id;sensor_type;location;lat;lon;timestamp;temperature;humidity
9564;DHT22;4820;50.870;4.702;2023-04-05T00:01:32;5.10;99.90
9564;DHT22;4820;50.870;4.702;2023-04-05T00:03:59;5.10;99.90
9564;DHT22;4820;50.870;4.702;2023-04-05T00:06:25;5.10;99.90
9564;DHT22;4820;50.870;4.702;2023-04-05T00:11:21;5.00;99.90
9564;DHT22;4820;50.870;4.702;2023-04-05T00:13:48;5.00;99.90
9564;DHT22;4820;50.870;4.702;2023-04-05T00:16:18;5.00;99.90
9564;DHT22;4820;50.870;4.702;2023-04-05T00:18:45;4.90;99.90
9564;DHT22;4820;50.870;4.702;2023-04-05T00:21:15;4.90;99.90
9564;DHT22;4820;50.870;4.702;2023-04-05T00:23:44;4.90;99.90
9564;DHT22;4820;50.870;4.702;2023-04-05T00:26:11;4.80;99.90
9564;DHT22;4820;50.870;4.702;2023-04-05T00:28:36;4.80;99.90
9564;DHT22;4820;50.870;4.702;2023-04-05T00:31:03;4.80;99.90
9564;DHT22;4820;50.870;4.702;2023-04-05T00:33:30;4.80;99.90
9564;DHT22;4820;50.870;4.702;2023-04-05T00:35:56;4.80;99.90
9564;DHT22;4820;50.870;4.702;2023-04-05T00:38:22;4.70;99.90
9564;DHT22;4820;50.870;4.702;2023-04-05T00:40:47;4.70;99.90
9564;DHT22;4820;50.870;4.702;2023-04-05T00:43:13;4.60;99.90
9564;DHT22;4820;50.870;4.702;2023-04-05T00:45:40;4.60;99.90
9564;DHT22;4820;50.870;4.702;2023-04-05T00:48:06;4.60;99.90
9564;DHT22;4820;50.870;4.702;2023-04-05T00:50:33;4.50;99.90
9564;DHT22;4820;50.870;4.702;2023-04-05T00:52:59;4.50;99.90
9564;DHT22;4820;50.870;4.702;2023-04-05T00:55:26;4.40;99.90
9564;DHT22;4820;50.870;4.702;2023-04-05T00:57:56;4.40;99.90
9564;DHT22;4820;50.870;4.702;2023-04-05T01:00:22;4.40;99.90
9564;DHT22;4820;50.870;4.702;2023-04-05T01:02:54;4.40;99.90
9564;DHT22;4820;50.870;4.702;2023-04-05T01:10:43;4.30;99.90
9564;DHT22;4820;50.870;4.702;2023-04-05T01:13:10;4.30;99.90
9564;DHT22;4820;50.870;4.702;2023-04-05T01:15:35;4.20;99.90
9564;DHT22;4820;50.870;4.702;2023-04-05T01:18:02;4.20;99.90
9564;DHT22;4820;50.870;4.702;2023-04-05T01:20:33;4.20;99.90
9564;DHT22;4820;50.870;4.702;2023-04-05T01:23:27;4.20;99.90
9564;DHT22;4820;50.870;4.702;2023-04-05T01:28:48;4.10;99.90
9564;DHT22;4820;50.870;4.702;2023-04-05T01:31:29;4.10;99.90
9564;DHT22;4820;50.870;4.702;2023-04-05T01:36:30;4.00;99.90
9564;DHT22;4820;50.870;4.702;2023-04-05T01:39:00;4.00;99.90
9564;DHT22;4820;50.870;4.702;2023-04-05T01:41:29;3.90;99.90
9564;DHT22;4820;50.870;4.702;2023-04-05T01:43:55;3.90;99.90
9564;DHT22;4820;50.870;4.702;2023-04-05T01:46:21;3.90;99.90
9564;DHT22;4820;50.870;4.702;2023-04-05T01:48:48;3.80;99.90
9564;DHT22;4820;50.870;4.702;2023-04-05T01:51:14;3.80;99.90
9564;DHT22;4820;50.870;4.702;2023-04-05T01:53:41;3.70;99.90
9564;DHT22;4820;50.870;4.702;2023-04-05T01:56:06;3.70;99.90
9564;DHT22;4820;50.870;4.702;2023-04-05T01:58:33;3.70;99.90
9564;DHT22;4820;50.870;4.702;2023-04-05T02:00:59;3.60;99.90
9564;DHT22;4820;50.870;4.702;2023-04-05T02:03:24;3.60;99.90
9564;DHT22;4820;50.870;4.702;2023-04-05T02:05:50;3.60;99.90
9564;DHT22;4820;50.870;4.702;2023-04-05T02:08:16;3.60;99.90
9564;DHT22;4820;50.870;4.702;2023-04-05T02:10:42;3.60;99.90
9564;DHT22;4820;50.870;4.702;2023-04-05T02:13:08;3.50;99.90
9564;DHT22;4820;50.870;4.702;2023-04-05T02:15:34;3.50;99.90
9564;DHT22;4820;50.870;4.702;2023-04-05T02:18:00;3.40;99.90
9564;DHT22;4820;50.870;4.702;2023-04-05T02:20:27;3.30;99.90
9564;DHT22;4820;50.870;4.702;2023-04-05T02:22:53;3.30;99.90
9564;DHT22;4820;50.870;4.702;2023-04-05T02:25:20;3.20;99.90
9564;DHT22;4820;50.870;4.702;2023-04-05T02:27:46;3.30;99.90
9564;DHT22;4820;50.870;4.702;2023-04-05T02:30:12;3.30;99.90
9564;DHT22;4820;50.870;4.702;2023-04-05T02:32:41;3.30;99.90
9564;DHT22;4820;50.870;4.702;2023-04-05T02:35:08;3.20;99.90
9564;DHT22;4820;50.870;4.702;2023-04-05T02:37:35;3.20;99.90
9564;DHT22;4820;50.870;4.702;2023-04-05T02:40:04;3.10;99.90
9564;DHT22;4820;50.870;4.702;2023-04-05T02:42:32;3.10;99.90
9564;DHT22;4820;50.870;4.702;2023-04-05T02:44:57;3.10;99.90
9564;DHT22;4820;50.870;4.702;2023-04-05T02:47:23;3.10;99.90
9564;DHT22;4820;50.870;4.702;2023-04-05T02:49:49;3.10;99.90
9564;DHT22;4820;50.870;4.702;2023-04-05T02:52:16;3.00;99.90
9564;DHT22;4820;50.870;4.702;2023-04-05T02:54:42;3.00;99.90
9564;DHT22;4820;50.870;4.702;2023-04-05T02:57:12;3.00;99.90
9564;DHT22;4820;50.870;4.702;2023-04-05T02:59:38;3.00;99.90
9564;DHT22;4820;50.870;4.702;2023-04-05T03:02:05;3.00;99.90
9564;DHT22;4820;50.870;4.702;2023-04-05T03:04:31;2.90;99.90
9564;DHT22;4820;50.870;4.702;2023-04-05T03:07:03;2.90;99.90
9564;DHT22;4820;50.870;4.702;2023-04-05T03:09:29;2.90;99.90
9564;DHT22;4820;50.870;4.702;2023-04-05T03:12:02;2.90;99.90
9564;DHT22;4820;50.870;4.702;2023-04-05T03:14:29;2.90;99.90
9564;DHT22;4820;50.870;4.702;2023-04-05T03:16:55;2.90;99.90
9564;DHT22;4820;50.870;4.702;2023-04-05T03:19:22;2.80;99.90
9564;DHT22;4820;50.870;4.702;2023-04-05T03:21:48;2.80;99.90
9564;DHT22;4820;50.870;4.702;2023-04-05T03:24:14;2.80;99.90
9564;DHT22;4820;50.870;4.702;2023-04-05T03:26:46;2.80;99.90
9564;DHT22;4820;50.870;4.702;2023-04-05T03:29:11;2.80;99.90
9564;DHT22;4820;50.870;4.702;2023-04-05T03:31:37;2.80;99.90
9564;DHT22;4820;50.870;4.702;2023-04-05T03:34:04;2.70;99.90
9564;DHT22;4820;50.870;4.702;2023-04-05T03:36:30;2.70;99.90
9564;DHT22;4820;50.870;4.702;2023-04-05T03:39:06;2.70;99.90
9564;DHT22;4820;50.870;4.702;2023-04-05T03:41:34;2.70;99.90
9564;DHT22;4820;50.870;4.702;2023-04-05T03:44:00;2.60;99.90
9564;DHT22;4820;50.870;4.702;2023-04-05T03:46:25;2.60;99.90
9564;DHT22;4820;50.870;4.702;2023-04-05T03:48:51;2.60;99.90
9564;DHT22;4820;50.870;4.702;2023-04-05T03:51:17;2.50;99.90
9564;DHT22;4820;50.870;4.702;2023-04-05T03:53:44;2.50;99.90
9564;DHT22;4820;50.870;4.702;2023-04-05T03:56:10;2.50;99.90
9564;DHT22;4820;50.870;4.702;2023-04-05T03:58:36;2.40;99.90
9564;DHT22;4820;50.870;4.702;2023-04-05T04:01:02;2.40;99.90
9564;DHT22;4820;50.870;4.702;2023-04-05T04:03:28;2.40;99.90
9564;DHT22;4820;50.870;4.702;2023-04-05T04:05:55;2.50;99.90
9564;DHT22;4820;50.870;4.702;2023-04-05T04:08:22;2.50;99.90
9564;DHT22;4820;50.870;4.702;2023-04-05T04:10:48;2.40;99.90
9564;DHT22;4820;50.870;4.702;2023-04-05T04:13:14;2.40;99.90
9564;DHT22;4820;50.870;4.702;2023-04-05T04:15:40;2.40;99.90
9564;DHT22;4820;50.870;4.702;2023-04-05T04:18:05;2.40;99.90
9564;DHT22;4820;50.870;4.702;2023-04-05T04:20:31;2.40;99.90
9564;DHT22;4820;50.870;4.702;2023-04-05T04:22:59;2.40;99.90
9564;DHT22;4820;50.870;4.702;2023-04-05T04:25:24;2.30;99.90
9564;DHT22;4820;50.870;4.702;2023-04-05T04:27:55;2.30;99.90
9564;DHT22;4820;50.870;4.702;2023-04-05T04:30:21;2.30;99.90
9564;DHT22;4820;50.870;4.702;2023-04-05T04:32:47;2.30;99.90
9564;DHT22;4820;50.870;4.702;2023-04-05T04:35:28;2.30;99.90
9564;DHT22;4820;50.870;4.702;2023-04-05T04:37:55;2.30;99.90
9564;DHT22;4820;50.870;4.702;2023-04-05T04:40:30;2.30;99.90
9564;DHT22;4820;50.870;4.702;2023-04-05T04:43:03;2.30;99.90
9564;DHT22;4820;50.870;4.702;2023-04-05T04:45:29;2.20;99.90
9564;DHT22;4820;50.870;4.702;2023-04-05T04:47:59;2.30;99.90
9564;DHT22;4820;50.870;4.702;2023-04-05T04:50:25;2.30;99.90
9564;DHT22;4820;50.870;4.702;2023-04-05T04:52:53;2.30;99.90
9564;DHT22;4820;50.870;4.702;2023-04-05T04:55:19;2.20;99.90
9564;DHT22;4820;50.870;4.702;2023-04-05T04:57:51;2.20;99.90
9564;DHT22;4820;50.870;4.702;2023-04-05T05:00:18;2.10;99.90
9564;DHT22;4820;50.870;4.702;2023-04-05T05:02:45;2.00;99.90
9564;DHT22;4820;50.870;4.702;2023-04-05T05:05:11;1.90;99.90
9564;DHT22;4820;50.870;4.702;2023-04-05T05:07:39;2.00;99.90
9564;DHT22;4820;50.870;4.702;2023-04-05T05:10:12;1.90;99.90
9564;DHT22;4820;50.870;4.702;2023-04-05T05:12:41;2.00;99.90
9564;DHT22;4820;50.870;4.702;2023-04-05T05:15:07;2.00;99.90
9564;DHT22;4820;50.870;4.702;2023-04-05T05:17:33;2.00;99.90
9564;DHT22;4820;50.870;4.702;2023-04-05T05:20:00;2.00;99.90
9564;DHT22;4820;50.870;4.702;2023-04-05T05:22:26;2.10;99.90
9564;DHT22;4820;50.870;4.702;2023-04-05T05:24:52;2.10;99.90
9564;DHT22;4820;50.870;4.702;2023-04-05T05:27:18;2.10;99.90
9564;DHT22;4820;50.870;4.702;2023-04-05T05:29:44;2.10;99.90
9564;DHT22;4820;50.870;4.702;2023-04-05T05:32:10;2.00;99.90
9564;DHT22;4820;50.870;4.702;2023-04-05T05:34:42;2.00;99.90
9564;DHT22;4820;50.870;4.702;2023-04-05T05:37:11;2.10;99.90
9564;DHT22;4820;50.870;4.702;2023-04-05T05:39:37;2.10;99.90
9564;DHT22;4820;50.870;4.702;2023-04-05T05:42:03;2.10;99.90
9564;DHT22;4820;50.870;4.702;2023-04-05T05:44:29;2.10;99.90
9564;DHT22;4820;50.870;4.702;2023-04-05T05:46:56;2.20;99.90
9564;DHT22;4820;50.870;4.702;2023-04-05T05:49:22;2.20;99.90
9564;DHT22;4820;50.870;4.702;2023-04-05T05:51:48;2.20;99.90
9564;DHT22;4820;50.870;4.702;2023-04-05T05:54:14;2.30;99.90
9564;DHT22;4820;50.870;4.702;2023-04-05T05:56:40;2.30;99.90
9564;DHT22;4820;50.870;4.702;2023-04-05T05:59:06;2.30;99.90
9564;DHT22;4820;50.870;4.702;2023-04-05T06:01:31;2.40;99.90
9564;DHT22;4820;50.870;4.702;2023-04-05T06:03:59;2.40;99.90
9564;DHT22;4820;50.870;4.702;2023-04-05T06:06:25;2.40;99.90
9564;DHT22;4820;50.870;4.702;2023-04-05T06:08:52;2.40;99.90
9564;DHT22;4820;50.870;4.702;2023-04-05T06:11:21;2.50;99.90
9564;DHT22;4820;50.870;4.702;2023-04-05T06:13:48;2.50;99.90
9564;DHT22;4820;50.870;4.702;2023-04-05T06:16:18;2.60;99.90
9564;DHT22;4820;50.870;4.702;2023-04-05T06:18:43;2.60;99.90
9564;DHT22;4820;50.870;4.702;2023-04-05T06:21:09;2.70;99.90
9564;DHT22;4820;50.870;4.702;2023-04-05T06:23:35;2.70;99.90
9564;DHT22;4820;50.870;4.702;2023-04-05T06:26:01;2.70;99.90
9564;DHT22;4820;50.870;4.702;2023-04-05T06:28:26;2.80;99.90
9564;DHT22;4820;50.870;4.702;2023-04-05T06:30:56;2.80;99.90
9564;DHT22;4820;50.870;4.702;2023-04-05T06:33:22;2.90;99.90
9564;DHT22;4820;50.870;4.702;2023-04-05T06:35:48;2.90;99.90
9564;DHT22;4820;50.870;4.702;2023-04-05T06:38:14;3.00;99.90
9564;DHT22;4820;50.870;4.702;2023-04-05T06:40:40;3.10;99.90
9564;DHT22;4820;50.870;4.702;2023-04-05T06:43:07;3.10;99.90
9564;DHT22;4820;50.870;4.702;2023-04-05T06:45:32;3.20;99.90
9564;DHT22;4820;50.870;4.702;2023-04-05T06:47:58;3.30;99.90
9564;DHT22;4820;50.870;4.702;2023-04-05T06:50:23;3.30;99.90
9564;DHT22;4820;50.870;4.702;2023-04-05T06:52:49;3.40;99.90
9564;DHT22;4820;50.870;4.702;2023-04-05T06:55:15;3.50;99.90
9564;DHT22;4820;50.870;4.702;2023-04-05T06:57:40;3.50;99.90
9564;DHT22;4820;50.870;4.702;2023-04-05T07:00:07;3.50;99.90
9564;DHT22;4820;50.870;4.702;2023-04-05T07:02:40;3.70;99.90
9564;DHT22;4820;50.870;4.702;2023-04-05T07:05:06;3.80;99.90
9564;DHT22;4820;50.870;4.702;2023-04-05T07:07:37;3.80;99.90
9564;DHT22;4820;50.870;4.702;2023-04-05T07:10:04;3.90;99.90
9564;DHT22;4820;50.870;4.702;2023-04-05T07:12:29;4.00;99.90
9564;DHT22;4820;50.870;4.702;2023-04-05T07:14:56;4.00;99.90
9564;DHT22;4820;50.870;4.702;2023-04-05T07:17:23;4.00;99.90
9564;DHT22;4820;50.870;4.702;2023-04-05T07:19:49;4.10;99.90
9564;DHT22;4820;50.870;4.702;2023-04-05T07:22:14;4.20;99.90
9564;DHT22;4820;50.870;4.702;2023-04-05T07:24:40;4.30;99.90
9564;DHT22;4820;50.870;4.702;2023-04-05T07:27:07;4.40;99.90
9564;DHT22;4820;50.870;4.702;2023-04-05T07:29:32;4.50;99.90
9564;DHT22;4820;50.870;4.702;2023-04-05T07:32:03;4.50;99.90
9564;DHT22;4820;50.870;4.702;2023-04-05T07:34:29;4.70;99.90
9564;DHT22;4820;50.870;4.702;2023-04-05T07:36:55;4.80;99.90
9564;DHT22;4820;50.870;4.702;2023-04-05T07:39:22;5.00;99.90
9564;DHT22;4820;50.870;4.702;2023-04-05T07:41:48;5.10;99.90
9564;DHT22;4820;50.870;4.702;2023-04-05T07:44:13;5.00;99.90
9564;DHT22;4820;50.870;4.702;2023-04-05T07:46:39;5.10;99.90
9564;DHT22;4820;50.870;4.702;2023-04-05T07:49:10;5.20;99.90
9564;DHT22;4820;50.870;4.702;2023-04-05T07:51:36;5.40;99.90
9564;DHT22;4820;50.870;4.702;2023-04-05T07:54:03;5.50;99.90
9564;DHT22;4820;50.870;4.702;2023-04-05T07:56:33;5.70;99.90
9564;DHT22;4820;50.870;4.702;2023-04-05T07:58:58;5.90;99.90
9564;DHT22;4820;50.870;4.702;2023-04-05T08:01:24;6.00;99.90
9564;DHT22;4820;50.870;4.702;2023-04-05T08:03:54;6.20;99.90
9564;DHT22;4820;50.870;4.702;2023-04-05T08:06:22;6.30;99.90
9564;DHT22;4820;50.870;4.702;2023-04-05T08:08:49;6.50;99.90
9564;DHT22;4820;50.870;4.702;2023-04-05T08:11:15;6.60;99.90
9564;DHT22;4820;50.870;4.702;2023-04-05T08:13:40;6.70;99.90
9564;DHT22;4820;50.870;4.702;2023-04-05T08:16:07;6.80;99.90
9564;DHT22;4820;50.870;4.702;2023-04-05T08:18:33;6.90;99.90
9564;DHT22;4820;50.870;4.702;2023-04-05T08:20:59;7.10;99.90
9564;DHT22;4820;50.870;4.702;2023-04-05T08:23:25;7.20;99.90
9564;DHT22;4820;50.870;4.702;2023-04-05T08:25:52;7.30;99.90
9564;DHT22;4820;50.870;4.702;2023-04-05T08:28:18;7.40;99.90
9564;DHT22;4820;50.870;4.702;2023-04-05T08:30:44;7.60;99.90
9564;DHT22;4820;50.870;4.702;2023-04-05T08:33:11;7.70;99.90
9564;DHT22;4820;50.870;4.702;2023-04-05T08:35:37;7.90;99.90
9564;DHT22;4820;50.870;4.702;2023-04-05T08:38:05;8.00;99.90
9564;DHT22;4820;50.870;4.702;2023-04-05T08:40:43;8.10;99.90
9564;DHT22;4820;50.870;4.702;2023-04-05T08:43:13;8.20;99.90
9564;DHT22;4820;50.870;4.702;2023-04-05T08:45:46;8.40;99.90
9564;DHT22;4820;50.870;4.702;2023-04-05T08:48:15;8.50;99.90
9564;DHT22;4820;50.870;4.702;2023-04-05T08:50:52;8.70;99.90
9564;DHT22;4820;50.870;4.702;2023-04-05T08:53:18;8.90;99.90
9564;DHT22;4820;50.870;4.702;2023-04-05T08:55:50;9.00;99.10
9564;DHT22;4820;50.870;4.702;2023-04-05T08:58:17;9.10;98.20
9564;DHT22;4820;50.870;4.702;2023-04-05T09:00:44;9.30;97.10
9564;DHT22;4820;50.870;4.702;2023-04-05T09:03:14;9.40;96.30
9564;DHT22;4820;50.870;4.702;2023-04-05T09:05:47;9.40;96.30
9564;DHT22;4820;50.870;4.702;2023-04-05T09:08:13;9.30;95.60
9564;DHT22;4820;50.870;4.702;2023-04-05T09:10:40;9.30;95.50
9564;DHT22;4820;50.870;4.702;2023-04-05T09:13:05;9.40;95.20
9564;DHT22;4820;50.870;4.702;2023-04-05T09:15:35;9.50;94.80
9564;DHT22;4820;50.870;4.702;2023-04-05T09:18:00;9.60;94.40
9564;DHT22;4820;50.870;4.702;2023-04-05T09:20:26;9.60;94.20
9564;DHT22;4820;50.870;4.702;2023-04-05T09:22:52;9.80;93.50
9564;DHT22;4820;50.870;4.702;2023-04-05T09:25:39;9.80;93.50
9564;DHT22;4820;50.870;4.702;2023-04-05T09:28:07;9.90;93.20
9564;DHT22;4820;50.870;4.702;2023-04-05T09:30:36;9.90;92.90
9564;DHT22;4820;50.870;4.702;2023-04-05T09:33:03;9.80;93.00
9564;DHT22;4820;50.870;4.702;2023-04-05T09:35:31;9.90;92.90
9564;DHT22;4820;50.870;4.702;2023-04-05T09:38:01;10.00;92.20
9564;DHT22;4820;50.870;4.702;2023-04-05T09:40:41;10.10;91.50
9564;DHT22;4820;50.870;4.702;2023-04-05T09:43:08;10.20;91.80
9564;DHT22;4820;50.870;4.702;2023-04-05T09:45:38;10.20;91.10
9564;DHT22;4820;50.870;4.702;2023-04-05T09:48:06;10.00;91.00
9564;DHT22;4820;50.870;4.702;2023-04-05T09:50:33;10.10;91.30
9564;DHT22;4820;50.870;4.702;2023-04-05T09:55:32;10.00;91.50
9564;DHT22;4820;50.870;4.702;2023-04-05T09:57:58;10.10;91.70
9564;DHT22;4820;50.870;4.702;2023-04-05T10:00:23;10.30;91.70
9564;DHT22;4820;50.870;4.702;2023-04-05T10:02:54;10.40;91.70
9564;DHT22;4820;50.870;4.702;2023-04-05T10:05:24;10.50;91.50
9564;DHT22;4820;50.870;4.702;2023-04-05T10:07:51;10.70;91.40
9564;DHT22;4820;50.870;4.702;2023-04-05T10:10:18;10.70;91.10
9564;DHT22;4820;50.870;4.702;2023-04-05T10:12:46;10.60;90.80
9564;DHT22;4820;50.870;4.702;2023-04-05T10:15:14;10.50;90.50
9564;DHT22;4820;50.870;4.702;2023-04-05T10:17:52;10.60;90.70
9564;DHT22;4820;50.870;4.702;2023-04-05T10:20:24;10.60;90.50
9564;DHT22;4820;50.870;4.702;2023-04-05T10:28:33;10.80;90.40
9564;DHT22;4820;50.870;4.702;2023-04-05T10:33:44;11.00;89.90
9564;DHT22;4820;50.870;4.702;2023-04-05T10:36:29;11.00;89.70
9564;DHT22;4820;50.870;4.702;2023-04-05T10:39:11;11.10;89.60
9564;DHT22;4820;50.870;4.702;2023-04-05T10:42:26;11.00;89.10
9564;DHT22;4820;50.870;4.702;2023-04-05T10:44:30;11.00;89.50
9564;DHT22;4820;50.870;4.702;2023-04-05T10:46:59;11.00;89.50
9564;DHT22;4820;50.870;4.702;2023-04-05T10:51:55;11.10;90.10
9564;DHT22;4820;50.870;4.702;2023-04-05T10:54:21;11.20;90.10
9564;DHT22;4820;50.870;4.702;2023-04-05T10:56:47;11.30;89.20
9564;DHT22;4820;50.870;4.702;2023-04-05T10:59:14;11.40;89.40
9564;DHT22;4820;50.870;4.702;2023-04-05T11:01:41;11.50;88.70
9564;DHT22;4820;50.870;4.702;2023-04-05T11:04:12;11.60;88.50
9564;DHT22;4820;50.870;4.702;2023-04-05T11:06:38;11.70;87.80
9564;DHT22;4820;50.870;4.702;2023-04-05T11:09:18;11.70;87.10
9564;DHT22;4820;50.870;4.702;2023-04-05T11:11:50;11.80;86.60
9564;DHT22;4820;50.870;4.702;2023-04-05T11:16:48;11.80;86.20
9564;DHT22;4820;50.870;4.702;2023-04-05T11:19:18;11.80;85.60
9564;DHT22;4820;50.870;4.702;2023-04-05T11:21:45;11.80;86.10
9564;DHT22;4820;50.870;4.702;2023-04-05T11:24:13;11.70;84.70
9564;DHT22;4820;50.870;4.702;2023-04-05T11:29:12;11.70;86.40
9564;DHT22;4820;50.870;4.702;2023-04-05T11:32:04;11.80;86.30
9564;DHT22;4820;50.870;4.702;2023-04-05T11:34:34;11.80;85.30
9564;DHT22;4820;50.870;4.702;2023-04-05T11:37:00;11.90;84.60
9564;DHT22;4820;50.870;4.702;2023-04-05T11:39:26;12.00;83.40
9564;DHT22;4820;50.870;4.702;2023-04-05T11:42:00;11.90;83.40
9564;DHT22;4820;50.870;4.702;2023-04-05T11:44:27;11.90;84.40
9564;DHT22;4820;50.870;4.702;2023-04-05T11:46:54;11.90;84.30
9564;DHT22;4820;50.870;4.702;2023-04-05T11:49:24;12.00;82.10
9564;DHT22;4820;50.870;4.702;2023-04-05T11:51:51;12.20;82.30
9564;DHT22;4820;50.870;4.702;2023-04-05T11:54:32;12.30;82.50
9564;DHT22;4820;50.870;4.702;2023-04-05T11:56:58;12.30;81.50
9564;DHT22;4820;50.870;4.702;2023-04-05T11:59:31;12.30;81.70
9564;DHT22;4820;50.870;4.702;2023-04-05T12:02:02;12.40;82.00
9564;DHT22;4820;50.870;4.702;2023-04-05T12:04:30;12.60;81.60
9564;DHT22;4820;50.870;4.702;2023-04-05T12:07:10;12.70;82.30
9564;DHT22;4820;50.870;4.702;2023-04-05T12:09:53;12.70;82.90
9564;DHT22;4820;50.870;4.702;2023-04-05T12:12:19;12.50;81.00
9564;DHT22;4820;50.870;4.702;2023-04-05T12:14:44;12.40;81.40
9564;DHT22;4820;50.870;4.702;2023-04-05T12:17:10;12.40;82.20
9564;DHT22;4820;50.870;4.702;2023-04-05T12:19:36;12.50;82.10
9564;DHT22;4820;50.870;4.702;2023-04-05T12:22:01;12.60;82.00
9564;DHT22;4820;50.870;4.702;2023-04-05T12:24:27;12.90;80.90
9564;DHT22;4820;50.870;4.702;2023-04-05T12:26:53;12.90;79.70
9564;DHT22;4820;50.870;4.702;2023-04-05T12:29:19;12.80;79.10
9564;DHT22;4820;50.870;4.702;2023-04-05T12:31:49;12.80;79.80
9564;DHT22;4820;50.870;4.702;2023-04-05T12:34:22;12.90;79.60
9564;DHT22;4820;50.870;4.702;2023-04-05T12:36:50;12.90;79.10
9564;DHT22;4820;50.870;4.702;2023-04-05T12:39:17;12.70;78.00
9564;DHT22;4820;50.870;4.702;2023-04-05T12:41:42;12.70;79.00
9564;DHT22;4820;50.870;4.702;2023-04-05T12:44:14;12.70;78.30
9564;DHT22;4820;50.870;4.702;2023-04-05T12:46:47;12.80;78.50
9564;DHT22;4820;50.870;4.702;2023-04-05T12:49:17;13.00;78.60
9564;DHT22;4820;50.870;4.702;2023-04-05T12:51:44;13.10;77.90
9564;DHT22;4820;50.870;4.702;2023-04-05T12:54:18;13.10;78.00
9564;DHT22;4820;50.870;4.702;2023-04-05T12:56:44;13.10;78.70
9564;DHT22;4820;50.870;4.702;2023-04-05T12:59:11;13.00;78.00
9564;DHT22;4820;50.870;4.702;2023-04-05T13:01:37;13.00;79.20
9564;DHT22;4820;50.870;4.702;2023-04-05T13:04:03;12.90;78.30
9564;DHT22;4820;50.870;4.702;2023-04-05T13:06:31;13.00;78.30
9564;DHT22;4820;50.870;4.702;2023-04-05T13:08:57;13.00;79.50
9564;DHT22;4820;50.870;4.702;2023-04-05T13:11:23;13.10;77.90
9564;DHT22;4820;50.870;4.702;2023-04-05T13:13:49;13.10;78.60
9564;DHT22;4820;50.870;4.702;2023-04-05T13:16:15;13.10;78.50
9564;DHT22;4820;50.870;4.702;2023-04-05T13:18:40;13.10;77.70
9564;DHT22;4820;50.870;4.702;2023-04-05T13:21:07;13.10;78.10
9564;DHT22;4820;50.870;4.702;2023-04-05T13:23:35;13.10;78.30
9564;DHT22;4820;50.870;4.702;2023-04-05T13:26:02;13.20;78.00
9564;DHT22;4820;50.870;4.702;2023-04-05T13:28:28;13.40;77.50
9564;DHT22;4820;50.870;4.702;2023-04-05T13:30:53;13.50;77.20
9564;DHT22;4820;50.870;4.702;2023-04-05T13:33:19;13.60;75.80
9564;DHT22;4820;50.870;4.702;2023-04-05T13:35:45;13.50;76.60
9564;DHT22;4820;50.870;4.702;2023-04-05T13:38:12;13.60;76.00
9564;DHT22;4820;50.870;4.702;2023-04-05T13:40:39;13.60;74.70
9564;DHT22;4820;50.870;4.702;2023-04-05T13:43:05;13.60;75.20
9564;DHT22;4820;50.870;4.702;2023-04-05T13:45:30;13.60;74.50
9564;DHT22;4820;50.870;4.702;2023-04-05T13:47:57;13.50;74.60
9564;DHT22;4820;50.870;4.702;2023-04-05T13:50:24;13.40;74.80
9564;DHT22;4820;50.870;4.702;2023-04-05T13:52:50;13.40;73.80
9564;DHT22;4820;50.870;4.702;2023-04-05T13:55:16;13.50;73.80
9564;DHT22;4820;50.870;4.702;2023-04-05T13:57:42;13.50;73.40
9564;DHT22;4820;50.870;4.702;2023-04-05T14:00:08;13.50;73.30
9564;DHT22;4820;50.870;4.702;2023-04-05T14:02:34;13.50;73.40
9564;DHT22;4820;50.870;4.702;2023-04-05T14:05:00;13.50;74.30
9564;DHT22;4820;50.870;4.702;2023-04-05T14:07:26;13.50;74.10
9564;DHT22;4820;50.870;4.702;2023-04-05T14:09:53;13.40;73.70
9564;DHT22;4820;50.870;4.702;2023-04-05T14:12:18;13.40;74.50
9564;DHT22;4820;50.870;4.702;2023-04-05T14:14:44;13.50;74.00
9564;DHT22;4820;50.870;4.702;2023-04-05T14:17:11;13.60;74.50
9564;DHT22;4820;50.870;4.702;2023-04-05T14:19:40;13.40;74.00
9564;DHT22;4820;50.870;4.702;2023-04-05T14:22:06;13.40;74.50
9564;DHT22;4820;50.870;4.702;2023-04-05T14:24:32;13.40;74.50
9564;DHT22;4820;50.870;4.702;2023-04-05T14:26:58;13.40;74.10
9564;DHT22;4820;50.870;4.702;2023-04-05T14:29:23;13.30;74.20
9564;DHT22;4820;50.870;4.702;2023-04-05T14:31:49;13.20;74.80
9564;DHT22;4820;50.870;4.702;2023-04-05T14:34:15;13.20;74.90
9564;DHT22;4820;50.870;4.702;2023-04-05T14:36:41;13.20;74.60
9564;DHT22;4820;50.870;4.702;2023-04-05T14:39:08;13.20;74.60
9564;DHT22;4820;50.870;4.702;2023-04-05T14:41:33;13.30;74.20
9564;DHT22;4820;50.870;4.702;2023-04-05T14:44:00;13.40;73.90
9564;DHT22;4820;50.870;4.702;2023-04-05T14:46:25;13.50;74.30
9564;DHT22;4820;50.870;4.702;2023-04-05T14:48:51;13.60;74.70
9564;DHT22;4820;50.870;4.702;2023-04-05T14:51:17;13.60;73.20
9564;DHT22;4820;50.870;4.702;2023-04-05T14:53:43;13.60;73.70
9564;DHT22;4820;50.870;4.702;2023-04-05T14:56:08;13.60;72.90
9564;DHT22;4820;50.870;4.702;2023-04-05T14:58:35;13.60;73.00
9564;DHT22;4820;50.870;4.702;2023-04-05T15:01:01;13.60;72.20
9564;DHT22;4820;50.870;4.702;2023-04-05T15:03:28;13.50;72.30
9564;DHT22;4820;50.870;4.702;2023-04-05T15:05:54;13.40;72.20
9564;DHT22;4820;50.870;4.702;2023-04-05T15:08:19;13.40;72.30
9564;DHT22;4820;50.870;4.702;2023-04-05T15:10:45;13.40;72.40
9564;DHT22;4820;50.870;4.702;2023-04-05T15:13:12;13.40;71.40
9564;DHT22;4820;50.870;4.702;2023-04-05T15:15:38;13.40;71.80
9564;DHT22;4820;50.870;4.702;2023-04-05T15:18:04;13.50;72.00
9564;DHT22;4820;50.870;4.702;2023-04-05T15:20:32;13.60;71.90
9564;DHT22;4820;50.870;4.702;2023-04-05T15:22:58;13.50;71.50
9564;DHT22;4820;50.870;4.702;2023-04-05T15:25:25;13.50;70.80
9564;DHT22;4820;50.870;4.702;2023-04-05T15:27:51;13.40;70.80
9564;DHT22;4820;50.870;4.702;2023-04-05T15:30:18;13.40;70.70
9564;DHT22;4820;50.870;4.702;2023-04-05T15:32:45;13.40;70.30
9564;DHT22;4820;50.870;4.702;2023-04-05T15:35:10;13.40;71.10
9564;DHT22;4820;50.870;4.702;2023-04-05T15:37:36;13.40;71.20
9564;DHT22;4820;50.870;4.702;2023-04-05T15:40:02;13.40;71.00
9564;DHT22;4820;50.870;4.702;2023-04-05T15:42:28;13.30;70.10
9564;DHT22;4820;50.870;4.702;2023-04-05T15:44:54;13.30;70.70
9564;DHT22;4820;50.870;4.702;2023-04-05T15:47:20;13.30;70.20
9564;DHT22;4820;50.870;4.702;2023-04-05T15:49:45;13.30;70.40
9564;DHT22;4820;50.870;4.702;2023-04-05T15:52:14;13.30;70.20
9564;DHT22;4820;50.870;4.702;2023-04-05T15:54:40;13.30;70.50
9564;DHT22;4820;50.870;4.702;2023-04-05T15:57:07;13.40;71.00
9564;DHT22;4820;50.870;4.702;2023-04-05T15:59:33;13.30;69.90
9564;DHT22;4820;50.870;4.702;2023-04-05T16:01:59;13.20;70.00
9564;DHT22;4820;50.870;4.702;2023-04-05T16:04:24;13.20;70.40
9564;DHT22;4820;50.870;4.702;2023-04-05T16:06:53;13.30;70.40
9564;DHT22;4820;50.870;4.702;2023-04-05T16:09:19;13.40;69.90
9564;DHT22;4820;50.870;4.702;2023-04-05T16:11:44;13.30;69.40
9564;DHT22;4820;50.870;4.702;2023-04-05T16:14:12;13.30;69.80
9564;DHT22;4820;50.870;4.702;2023-04-05T16:16:38;13.20;70.30
9564;DHT22;4820;50.870;4.702;2023-04-05T16:19:06;13.10;71.00
9564;DHT22;4820;50.870;4.702;2023-04-05T16:21:33;13.10;70.60
9564;DHT22;4820;50.870;4.702;2023-04-05T16:23:59;13.10;70.30
9564;DHT22;4820;50.870;4.702;2023-04-05T16:26:27;13.00;70.30
9564;DHT22;4820;50.870;4.702;2023-04-05T16:28:53;13.00;70.10
9564;DHT22;4820;50.870;4.702;2023-04-05T16:31:18;13.00;70.60
9564;DHT22;4820;50.870;4.702;2023-04-05T16:33:44;13.00;71.40
9564;DHT22;4820;50.870;4.702;2023-04-05T16:36:10;12.90;70.80
9564;DHT22;4820;50.870;4.702;2023-04-05T16:38:36;12.90;71.30
9564;DHT22;4820;50.870;4.702;2023-04-05T16:41:02;13.00;70.70
9564;DHT22;4820;50.870;4.702;2023-04-05T16:43:28;13.00;71.00
9564;DHT22;4820;50.870;4.702;2023-04-05T16:45:54;13.10;70.60